createdAt,value
2023-04-09T00:02:00.997Z,77.43
2023-04-09T00:04:30.446Z,77.29
2023-04-09T00:06:59.878Z,77.74
2023-04-09T00:09:29.266Z,77.32
2023-04-09T00:11:58.586Z,77.49
2023-04-09T00:14:28.211Z,77.41
2023-04-09T00:16:57.577Z,77.57
2023-04-09T00:19:26.892Z,77.55
2023-04-09T00:21:56.918Z,77.05
2023-04-09T00:24:26.428Z,76.92
2023-04-09T00:26:55.795Z,76.93
2023-04-09T00:29:25.309Z,76.92
2023-04-09T00:31:54.808Z,76.93
2023-04-09T00:34:24.718Z,77.15
2023-04-09T00:36:54.092Z,77.43
2023-04-09T00:39:23.410Z,78.08
2023-04-09T00:42:02.720Z,78.62
2023-04-09T00:44:32.682Z,78.56
2023-04-09T00:47:02.075Z,79.03
2023-04-09T00:49:31.586Z,78.81
2023-04-09T00:52:01.080Z,79.03
2023-04-09T00:54:30.739Z,79.00
2023-04-09T00:57:00.943Z,78.73
2023-04-09T00:59:30.622Z,79.23
2023-04-09T01:02:00.048Z,79.45
2023-04-09T01:04:29.731Z,79.74
2023-04-09T01:07:13.376Z,79.80
2023-04-09T01:10:20.186Z,79.75
2023-04-09T01:13:16.798Z,79.95
2023-04-09T01:15:56.165Z,79.65
2023-04-09T01:18:44.537Z,79.68
2023-04-09T01:21:17.991Z,79.91
2023-04-09T01:24:20.451Z,80.01
2023-04-09T01:27:09.905Z,80.34
2023-04-09T01:29:56.271Z,80.51
2023-04-09T01:32:27.125Z,80.51
2023-04-09T01:34:57.386Z,80.63
2023-04-09T01:37:27.512Z,80.57
2023-04-09T01:39:57.223Z,80.66
2023-04-09T01:42:28.575Z,80.58
2023-04-09T01:44:58.933Z,80.63
2023-04-09T01:47:28.933Z,80.28
2023-04-09T01:49:58.816Z,80.73
2023-04-09T01:52:28.672Z,81.06
2023-04-09T01:54:58.102Z,81.30
2023-04-09T01:57:27.632Z,81.55
2023-04-09T01:59:57.134Z,81.79
2023-04-09T02:03:08.598Z,81.86
2023-04-09T02:05:44.852Z,81.50
2023-04-09T02:08:21.097Z,81.37
2023-04-09T02:10:56.985Z,80.99
2023-04-09T02:13:28.539Z,81.76
2023-04-09T02:16:00.453Z,81.94
2023-04-09T02:18:31.392Z,82.15
2023-04-09T02:21:00.881Z,82.36
2023-04-09T02:23:32.603Z,82.40
2023-04-09T02:26:02.699Z,82.11
2023-04-09T02:28:32.073Z,82.05
2023-04-09T02:31:01.445Z,82.47
2023-04-09T02:33:32.326Z,82.36
2023-04-09T02:36:01.847Z,82.11
2023-04-09T02:38:31.882Z,82.58
2023-04-09T02:41:01.197Z,82.55
2023-04-09T02:43:30.794Z,82.41
2023-04-09T02:46:00.313Z,82.96
2023-04-09T02:48:29.828Z,83.22
2023-04-09T02:50:59.376Z,82.67
2023-04-09T02:53:28.789Z,83.08
2023-04-09T02:55:58.212Z,82.75
2023-04-09T02:58:27.666Z,82.40
2023-04-09T03:00:56.994Z,82.17
2023-04-09T03:03:26.484Z,82.05
2023-04-09T03:05:55.820Z,82.13
2023-04-09T03:08:25.370Z,82.48
2023-04-09T03:10:54.811Z,82.62
2023-04-09T03:13:24.157Z,83.26
2023-04-09T03:15:53.983Z,83.02
2023-04-09T03:18:23.598Z,82.79
2023-04-09T03:20:53.007Z,82.69
2023-04-09T03:23:22.846Z,83.44
2023-04-09T03:26:02.699Z,83.34
2023-04-09T03:28:34.483Z,83.49
2023-04-09T03:31:03.858Z,83.78
2023-04-09T03:33:35.007Z,84.07
2023-04-09T03:36:05.504Z,84.04
2023-04-09T03:38:48.078Z,84.27
2023-04-09T03:41:28.190Z,84.25
2023-04-09T03:43:57.896Z,84.54
2023-04-09T03:46:30.081Z,84.26
2023-04-09T03:48:59.905Z,83.89
2023-04-09T03:51:36.809Z,83.50
2023-04-09T03:54:06.713Z,83.32
2023-04-09T03:56:36.156Z,83.20
2023-04-09T03:59:08.346Z,83.78
2023-04-09T04:01:41.219Z,84.13
2023-04-09T04:04:12.068Z,84.66
2023-04-09T04:06:52.236Z,84.64
2023-04-09T04:09:33.429Z,85.14
2023-04-09T04:12:08.351Z,84.80
2023-04-09T04:15:02.536Z,84.61
2023-04-09T04:17:42.597Z,84.87
2023-04-09T04:20:18.811Z,84.72
2023-04-09T04:23:12.868Z,84.61
2023-04-09T04:25:49.688Z,85.04
2023-04-09T04:28:23.317Z,84.85
2023-04-09T04:30:52.746Z,85.02
2023-04-09T04:33:22.323Z,85.19
2023-04-09T04:35:54.641Z,85.22
2023-04-09T04:38:41.288Z,85.47
2023-04-09T04:41:16.089Z,85.13
2023-04-09T04:43:50.490Z,85.03
2023-04-09T04:46:23.620Z,84.61
2023-04-09T04:48:55.815Z,84.57
2023-04-09T04:51:27.938Z,84.49
2023-04-09T04:54:07.416Z,84.53
2023-04-09T04:56:39.155Z,84.56
2023-04-09T04:59:34.267Z,84.28
2023-04-09T05:02:09.291Z,83.88
2023-04-09T05:05:32.065Z,83.34
2023-04-09T05:08:03.058Z,82.62
2023-04-09T05:10:32.624Z,82.29
2023-04-09T05:13:02.572Z,81.78
2023-04-09T05:15:41.952Z,81.05
2023-04-09T05:18:11.459Z,80.92
2023-04-09T05:20:42.459Z,80.49
2023-04-09T05:23:12.737Z,80.06
2023-04-09T05:25:44.126Z,79.34
2023-04-09T05:28:19.456Z,78.86
2023-04-09T05:30:49.995Z,77.54
2023-04-09T05:33:20.212Z,75.78
2023-04-09T05:35:49.805Z,75.04
2023-04-09T05:38:19.275Z,73.93
2023-04-09T05:40:50.558Z,73.12
2023-04-09T05:43:19.904Z,72.08
2023-04-09T05:45:50.032Z,71.98
2023-04-09T05:48:19.883Z,71.60
2023-04-09T05:50:55.561Z,70.60
2023-04-09T05:53:27.864Z,69.68
2023-04-09T05:55:57.343Z,68.85
2023-04-09T05:58:29.784Z,68.53
2023-04-09T06:00:59.943Z,67.93
2023-04-09T06:03:29.611Z,67.20
2023-04-09T06:05:59.197Z,66.34
2023-04-09T06:08:28.614Z,66.88
2023-04-09T06:10:59.135Z,66.12
2023-04-09T06:13:28.512Z,66.82
2023-04-09T06:15:58.009Z,64.59
2023-04-09T06:18:27.483Z,64.76
2023-04-09T06:21:07.857Z,63.84
2023-04-09T06:23:37.130Z,62.55
2023-04-09T06:26:06.602Z,62.83
2023-04-09T06:28:36.790Z,62.85
2023-04-09T06:31:06.227Z,60.87
2023-04-09T06:33:35.557Z,60.85
2023-04-09T06:36:05.291Z,59.42
2023-04-09T06:38:34.637Z,60.12
2023-04-09T06:41:07.003Z,60.01
2023-04-09T06:43:37.675Z,59.00
2023-04-09T06:46:07.297Z,57.51
2023-04-09T06:48:36.654Z,58.15
2023-04-09T06:51:07.833Z,58.41
2023-04-09T06:53:39.129Z,57.48
2023-04-09T06:56:08.710Z,55.54
2023-04-09T06:58:38.147Z,55.28
2023-04-09T07:01:07.643Z,54.24
2023-04-09T07:03:37.211Z,54.37
2023-04-09T07:06:06.843Z,53.17
2023-04-09T07:08:36.324Z,52.66
2023-04-09T07:11:05.896Z,53.03
2023-04-09T07:13:35.349Z,51.17
2023-04-09T07:16:05.195Z,50.51
2023-04-09T07:18:34.558Z,49.34
2023-04-09T07:21:04.425Z,48.19
2023-04-09T07:23:37.415Z,49.40
2023-04-09T07:26:07.416Z,49.37
2023-04-09T07:28:36.855Z,48.85
2023-04-09T07:31:06.269Z,47.99
2023-04-09T07:33:35.977Z,49.76
2023-04-09T07:36:07.054Z,48.72
2023-04-09T07:38:36.586Z,48.50
2023-04-09T07:41:07.289Z,48.18
2023-04-09T07:43:40.001Z,48.29
2023-04-09T07:46:09.583Z,50.11
2023-04-09T07:48:38.912Z,51.51
2023-04-09T07:51:08.672Z,51.54
2023-04-09T07:53:38.178Z,50.73
2023-04-09T07:56:08.271Z,47.42
2023-04-09T07:58:40.302Z,46.49
2023-04-09T08:01:09.672Z,46.78
2023-04-09T08:03:39.249Z,46.65
2023-04-09T08:06:09.835Z,45.11
2023-04-09T08:08:39.285Z,46.57
2023-04-09T08:11:08.754Z,46.63
2023-04-09T08:13:38.188Z,46.43
2023-04-09T08:16:07.647Z,47.11
2023-04-09T08:18:37.034Z,46.43
2023-04-09T08:21:08.172Z,45.07
2023-04-09T08:23:37.922Z,44.97
2023-04-09T08:26:07.441Z,45.13
2023-04-09T08:28:37.529Z,44.32
2023-04-09T08:31:06.967Z,42.49
2023-04-09T08:33:36.291Z,39.76
2023-04-09T08:36:09.762Z,39.47
2023-04-09T08:38:39.097Z,38.49
2023-04-09T08:41:17.359Z,38.57
2023-04-09T08:43:57.839Z,40.47
2023-04-09T08:46:31.381Z,39.46
2023-04-09T08:49:00.812Z,38.84
2023-04-09T08:51:30.215Z,37.76
2023-04-09T08:54:04.473Z,38.22
2023-04-09T08:56:34.602Z,38.20
2023-04-09T08:59:03.997Z,38.15
2023-04-09T09:01:33.577Z,38.54
2023-04-09T09:04:08.637Z,38.22
2023-04-09T09:06:41.244Z,38.38
2023-04-09T09:09:16.657Z,39.48
2023-04-09T09:11:50.463Z,38.31
2023-04-09T09:14:23.241Z,37.56
2023-04-09T09:16:56.434Z,38.03
2023-04-09T09:19:26.344Z,39.42
2023-04-09T09:22:04.990Z,38.32
2023-04-09T09:24:35.148Z,37.35
2023-04-09T09:27:05.082Z,36.46
2023-04-09T09:29:42.179Z,36.43
2023-04-09T09:32:14.446Z,36.62
2023-04-09T09:35:05.478Z,36.13
2023-04-09T09:37:35.005Z,36.74
2023-04-09T09:40:05.003Z,35.51
2023-04-09T09:42:34.497Z,34.37
2023-04-09T09:45:18.091Z,34.32
2023-04-09T09:47:48.675Z,33.58
2023-04-09T09:50:19.379Z,33.03
2023-04-09T09:52:48.972Z,32.22
2023-04-09T09:55:19.601Z,33.08
2023-04-09T09:57:51.872Z,33.33
2023-04-09T10:00:25.720Z,32.10
2023-04-09T10:03:21.793Z,32.43
2023-04-09T10:05:53.765Z,32.17
2023-04-09T10:08:24.045Z,31.49
2023-04-09T10:10:53.524Z,32.07
2023-04-09T10:13:36.267Z,31.97
2023-04-09T10:16:22.290Z,31.97
2023-04-09T10:18:52.325Z,31.61
2023-04-09T10:21:45.937Z,31.84
2023-04-09T10:24:17.173Z,30.95
2023-04-09T10:26:47.173Z,31.31
2023-04-09T10:29:16.995Z,30.93
2023-04-09T10:32:03.996Z,31.13
2023-04-09T10:34:43.607Z,30.74
2023-04-09T10:37:22.332Z,30.96
2023-04-09T10:39:53.645Z,31.00
2023-04-09T10:42:30.700Z,32.91
2023-04-09T10:45:22.467Z,31.88
2023-04-09T10:47:52.223Z,31.23
2023-04-09T10:50:28.014Z,30.01
2023-04-09T10:53:00.906Z,29.86
2023-04-09T10:55:41.890Z,30.03
2023-04-09T10:58:13.794Z,28.68
2023-04-09T11:00:46.594Z,29.23
2023-04-09T11:03:27.889Z,30.09
2023-04-09T11:06:09.472Z,31.06
2023-04-09T11:08:39.363Z,32.29
2023-04-09T11:11:10.465Z,32.62
2023-04-09T11:13:42.076Z,31.95
2023-04-09T11:16:22.893Z,31.35
2023-04-09T11:18:56.327Z,31.53
2023-04-09T11:21:29.022Z,30.26
2023-04-09T11:23:58.428Z,29.52
2023-04-09T11:26:36.623Z,28.78
2023-04-09T11:29:09.776Z,29.01
2023-04-09T11:31:39.210Z,29.35
2023-04-09T11:34:14.608Z,28.77
2023-04-09T11:36:43.936Z,27.99
2023-04-09T11:39:13.346Z,28.41
2023-04-09T11:41:44.040Z,28.70
2023-04-09T11:44:14.226Z,28.83
2023-04-09T11:46:44.864Z,29.22
2023-04-09T11:49:14.596Z,29.46
2023-04-09T11:51:44.330Z,30.01
2023-04-09T11:54:14.530Z,29.84
2023-04-09T11:56:43.850Z,29.25
2023-04-09T11:59:15.782Z,29.33
2023-04-09T12:01:51.429Z,31.43
2023-04-09T12:04:22.111Z,29.77
2023-04-09T12:06:52.177Z,28.82
2023-04-09T12:09:22.008Z,29.76
2023-04-09T12:11:52.378Z,28.42
2023-04-09T12:14:22.345Z,28.14
2023-04-09T12:16:54.828Z,27.99
2023-04-09T12:19:25.908Z,28.21
2023-04-09T12:21:58.624Z,29.26
2023-04-09T12:24:29.042Z,30.34
2023-04-09T12:27:00.472Z,30.86
2023-04-09T12:29:30.806Z,32.00
2023-04-09T12:32:00.280Z,30.97
2023-04-09T12:34:29.628Z,29.82
2023-04-09T12:36:59.904Z,28.71
2023-04-09T12:39:29.412Z,28.61
2023-04-09T12:41:58.639Z,28.13
2023-04-09T12:44:27.960Z,27.40
2023-04-09T12:46:57.295Z,27.99
2023-04-09T12:49:26.582Z,27.09
2023-04-09T12:51:56.095Z,26.73
2023-04-09T12:54:26.400Z,25.63
2023-04-09T12:56:56.139Z,25.69
2023-04-09T12:59:25.466Z,26.92
2023-04-09T13:01:54.945Z,28.03
2023-04-09T13:04:25.435Z,28.31
2023-04-09T13:06:55.124Z,29.00
2023-04-09T13:09:25.571Z,29.63
2023-04-09T13:11:55.202Z,29.97
2023-04-09T13:14:24.521Z,30.34
2023-04-09T13:16:54.190Z,31.19
2023-04-09T13:19:24.376Z,29.39
2023-04-09T13:21:53.969Z,30.08
2023-04-09T13:24:23.364Z,30.57
2023-04-09T13:26:52.832Z,31.85
2023-04-09T13:29:23.230Z,32.74
2023-04-09T13:31:52.492Z,32.47
2023-04-09T13:34:21.963Z,33.62
2023-04-09T13:36:51.655Z,33.96
2023-04-09T13:39:21.305Z,34.93
2023-04-09T13:41:52.158Z,36.35
2023-04-09T13:44:21.726Z,36.92
2023-04-09T13:46:51.085Z,38.63
2023-04-09T13:49:22.237Z,38.74
2023-04-09T13:51:51.742Z,38.16
2023-04-09T13:54:21.148Z,37.55
2023-04-09T13:56:51.265Z,38.30
2023-04-09T13:59:20.661Z,38.44
2023-04-09T14:01:50.106Z,38.89
2023-04-09T14:04:19.744Z,39.84
2023-04-09T14:06:49.280Z,40.17
2023-04-09T14:09:18.680Z,39.75
2023-04-09T14:11:48.045Z,39.58
2023-04-09T14:14:20.105Z,39.42
2023-04-09T14:16:50.581Z,39.58
2023-04-09T14:19:21.160Z,39.66
2023-04-09T14:21:53.390Z,38.50
2023-04-09T14:24:23.674Z,37.87
2023-04-09T14:26:53.690Z,36.46
2023-04-09T14:29:23.186Z,37.10
2023-04-09T14:31:53.898Z,37.41
2023-04-09T14:34:24.277Z,37.01
2023-04-09T14:36:53.741Z,37.18
2023-04-09T14:39:23.072Z,37.31
2023-04-09T14:41:52.679Z,37.22
2023-04-09T14:44:22.118Z,38.07
2023-04-09T14:46:55.141Z,38.45
2023-04-09T14:49:26.664Z,38.45
2023-04-09T14:51:56.729Z,38.84
2023-04-09T14:54:26.154Z,38.81
2023-04-09T14:56:55.604Z,38.56
2023-04-09T14:59:26.021Z,38.52
2023-04-09T15:01:55.489Z,38.85
2023-04-09T15:04:25.077Z,39.10
2023-04-09T15:06:54.531Z,39.33
2023-04-09T15:09:23.982Z,40.16
2023-04-09T15:11:54.372Z,39.91
2023-04-09T15:14:24.253Z,40.10
2023-04-09T15:16:56.067Z,40.24
2023-04-09T15:19:26.637Z,40.70
2023-04-09T15:21:56.830Z,41.40
2023-04-09T15:24:26.353Z,41.67
2023-04-09T15:26:57.242Z,41.61
2023-04-09T15:29:26.640Z,41.75
2023-04-09T15:31:56.564Z,42.20
2023-04-09T15:34:28.157Z,42.17
2023-04-09T15:36:57.465Z,42.62
2023-04-09T15:39:30.183Z,43.05
2023-04-09T15:41:59.796Z,43.54
2023-04-09T15:44:29.420Z,44.04
2023-04-09T15:46:59.728Z,44.04
2023-04-09T15:49:29.162Z,44.35
2023-04-09T15:51:58.597Z,44.71
2023-04-09T15:54:28.353Z,45.25
2023-04-09T15:56:57.704Z,45.76
2023-04-09T15:59:27.018Z,45.58
2023-04-09T16:01:56.471Z,45.68
2023-04-09T16:04:27.928Z,46.09
2023-04-09T16:06:57.599Z,46.36
2023-04-09T16:09:27.186Z,46.11
2023-04-09T16:11:56.645Z,46.32
2023-04-09T16:14:30.866Z,46.77
2023-04-09T16:17:00.678Z,46.81
2023-04-09T16:19:30.035Z,47.12
2023-04-09T16:22:01.014Z,46.80
2023-04-09T16:24:31.796Z,46.73
2023-04-09T16:27:01.689Z,46.83
2023-04-09T16:29:31.379Z,47.23
2023-04-09T16:32:06.183Z,47.30
2023-04-09T16:34:35.999Z,47.41
2023-04-09T16:37:05.589Z,47.20
2023-04-09T16:39:35.071Z,47.61
2023-04-09T16:42:04.578Z,47.82
2023-04-09T16:44:33.957Z,47.92
2023-04-09T16:47:03.586Z,48.54
2023-04-09T16:49:32.929Z,48.59
2023-04-09T16:52:02.349Z,48.64
2023-04-09T16:54:32.805Z,49.10
2023-04-09T16:57:03.450Z,49.11
2023-04-09T16:59:32.875Z,48.97
2023-04-09T17:02:02.816Z,49.22
2023-04-09T17:04:34.760Z,49.58
2023-04-09T17:07:04.711Z,49.82
2023-04-09T17:09:34.126Z,49.64
2023-04-09T17:12:03.934Z,49.76
2023-04-09T17:14:34.678Z,49.60
2023-04-09T17:17:05.301Z,50.60
2023-04-09T17:19:35.587Z,50.83
2023-04-09T17:22:06.113Z,50.81
2023-04-09T17:24:37.001Z,51.23
2023-04-09T17:27:06.825Z,51.44
2023-04-09T17:29:36.263Z,51.05
2023-04-09T17:32:06.258Z,51.72
2023-04-09T17:34:35.735Z,52.52
2023-04-09T17:37:07.614Z,52.39
2023-04-09T17:39:38.437Z,52.69
2023-04-09T17:42:08.573Z,52.61
2023-04-09T17:44:39.833Z,53.49
2023-04-09T17:47:12.528Z,53.39
2023-04-09T17:49:42.741Z,53.22
2023-04-09T17:52:13.301Z,53.76
2023-04-09T17:54:45.591Z,53.74
2023-04-09T17:57:15.705Z,54.02
2023-04-09T17:59:46.368Z,54.21
2023-04-09T18:02:15.764Z,54.55
2023-04-09T18:04:45.337Z,55.11
2023-04-09T18:07:14.980Z,56.11
2023-04-09T18:09:45.328Z,55.82
2023-04-09T18:12:17.300Z,55.83
2023-04-09T18:14:49.350Z,55.42
2023-04-09T18:17:19.272Z,55.72
2023-04-09T18:19:49.346Z,56.08
2023-04-09T18:22:18.737Z,56.21
2023-04-09T18:24:50.735Z,56.37
2023-04-09T18:27:21.641Z,56.70
2023-04-09T18:29:51.142Z,57.61
2023-04-09T18:32:20.923Z,57.72
2023-04-09T18:34:52.337Z,57.73
2023-04-09T18:37:22.020Z,57.37
2023-04-09T18:39:52.483Z,57.38
2023-04-09T18:42:21.815Z,56.94
2023-04-09T18:44:53.684Z,57.21
2023-04-09T18:47:26.288Z,57.10
2023-04-09T18:49:55.785Z,60.48
2023-04-09T18:52:25.144Z,60.66
2023-04-09T18:54:54.750Z,60.12
2023-04-09T18:57:24.206Z,60.15
2023-04-09T18:59:53.964Z,60.06
2023-04-09T19:02:23.409Z,59.88
2023-04-09T19:04:53.628Z,59.58
2023-04-09T19:07:23.163Z,59.75
2023-04-09T19:09:55.386Z,60.07
2023-04-09T19:12:27.647Z,59.37
2023-04-09T19:14:56.963Z,59.81
2023-04-09T19:17:27.480Z,59.91
2023-04-09T19:19:57.088Z,60.12
2023-04-09T19:22:26.796Z,60.08
2023-04-09T19:24:56.172Z,60.33
2023-04-09T19:27:25.503Z,59.84
2023-04-09T19:29:54.938Z,59.97
2023-04-09T19:32:24.386Z,60.51
2023-04-09T19:34:53.710Z,61.23
2023-04-09T19:37:27.621Z,61.37
2023-04-09T19:39:59.190Z,61.73
2023-04-09T19:42:29.041Z,61.21
2023-04-09T19:44:58.884Z,61.23
2023-04-09T19:47:28.500Z,60.45
2023-04-09T19:49:57.807Z,60.20
2023-04-09T19:52:27.212Z,61.37
2023-04-09T19:54:56.687Z,61.11
2023-04-09T19:57:26.628Z,61.43
2023-04-09T19:59:56.064Z,61.49
2023-04-09T20:02:25.797Z,61.82
2023-04-09T20:04:55.944Z,60.96
2023-04-09T20:07:25.348Z,61.99
2023-04-09T20:09:54.827Z,62.42
2023-04-09T20:12:28.407Z,62.50
2023-04-09T20:14:58.685Z,62.47
2023-04-09T20:17:28.140Z,62.00
2023-04-09T20:19:57.669Z,61.50
2023-04-09T20:22:27.285Z,61.76
2023-04-09T20:24:56.841Z,62.50
2023-04-09T20:27:27.181Z,62.63
2023-04-09T20:29:56.610Z,62.68
2023-04-09T20:32:27.261Z,62.94
2023-04-09T20:34:56.841Z,62.70
2023-04-09T20:37:26.322Z,63.45
2023-04-09T20:39:55.772Z,63.41
2023-04-09T20:42:25.069Z,63.42
2023-04-09T20:44:54.590Z,63.35
2023-04-09T20:47:24.110Z,63.41
2023-04-09T20:49:55.730Z,63.49
2023-04-09T20:52:28.178Z,63.61
2023-04-09T20:54:57.871Z,63.95
2023-04-09T20:57:27.404Z,64.20
2023-04-09T20:59:56.704Z,64.41
2023-04-09T21:02:26.288Z,64.49
2023-04-09T21:05:00.023Z,64.80
2023-04-09T21:07:32.971Z,65.30
2023-04-09T21:10:02.341Z,64.50
2023-04-09T21:12:33.759Z,64.72
2023-04-09T21:15:03.166Z,64.80
2023-04-09T21:17:33.243Z,65.16
2023-04-09T21:20:02.746Z,65.01
2023-04-09T21:22:32.156Z,65.32
2023-04-09T21:25:03.454Z,65.77
2023-04-09T21:27:32.938Z,65.73
2023-04-09T21:30:02.354Z,65.41
2023-04-09T21:32:31.674Z,65.90
2023-04-09T21:35:01.123Z,67.10
2023-04-09T21:37:32.180Z,68.24
2023-04-09T21:40:01.577Z,67.99
2023-04-09T21:42:33.562Z,66.57
2023-04-09T21:45:03.940Z,67.15
2023-04-09T21:47:33.388Z,67.16
2023-04-09T21:50:06.251Z,67.19
2023-04-09T21:52:35.729Z,67.16
2023-04-09T21:55:05.895Z,68.28
2023-04-09T21:57:35.154Z,68.63
2023-04-09T22:00:06.272Z,69.71
2023-04-09T22:02:39.555Z,69.78
2023-04-09T22:05:09.906Z,68.17
2023-04-09T22:07:40.715Z,69.49
2023-04-09T22:10:10.521Z,70.16
2023-04-09T22:12:39.930Z,70.24
2023-04-09T22:15:10.014Z,70.53
2023-04-09T22:17:39.483Z,70.29
2023-04-09T22:20:09.859Z,70.63
2023-04-09T22:22:39.852Z,71.24
2023-04-09T22:25:11.340Z,71.44
2023-04-09T22:27:40.683Z,71.60
2023-04-09T22:30:10.227Z,71.19
2023-04-09T22:32:39.676Z,70.66
2023-04-09T22:35:09.682Z,70.41
2023-04-09T22:37:39.039Z,70.49
2023-04-09T22:40:14.468Z,70.68
2023-04-09T22:42:46.974Z,71.96
2023-04-09T22:45:16.394Z,71.37
2023-04-09T22:47:46.048Z,71.21
2023-04-09T22:50:15.420Z,71.39
2023-04-09T22:52:44.847Z,71.30
2023-04-09T22:55:14.666Z,71.07
2023-04-09T22:57:44.539Z,70.84
2023-04-09T23:00:14.913Z,70.83
2023-04-09T23:02:44.366Z,70.05
2023-04-09T23:05:13.819Z,70.85
2023-04-09T23:07:45.205Z,70.15
2023-04-09T23:10:16.497Z,70.21
2023-04-09T23:12:45.884Z,70.22
2023-04-09T23:15:16.069Z,70.89
2023-04-09T23:17:45.444Z,70.73
2023-04-09T23:20:15.188Z,70.91
2023-04-09T23:22:47.927Z,70.60
2023-04-09T23:25:17.649Z,71.11
2023-04-09T23:28:05.686Z,70.80
2023-04-09T23:30:35.156Z,71.33
2023-04-09T23:33:04.526Z,71.52
2023-04-09T23:35:34.016Z,71.65
2023-04-09T23:38:03.302Z,72.01
2023-04-09T23:40:32.637Z,71.84
2023-04-09T23:43:02.921Z,72.07
2023-04-09T23:45:32.334Z,72.06
2023-04-09T23:48:03.344Z,71.93
2023-04-09T23:50:32.891Z,72.86
2023-04-09T23:53:03.944Z,72.16
2023-04-09T23:55:34.245Z,72.22
2023-04-09T23:58:05.213Z,72.30
